Time;durP1;ratioP1;P1;durP2;ratioP2;P2;SDS_P1;SDS_P2;PMS_P1;PMS_P2;Temp;Humidity;BMP_temperature;BMP_pressure;BME280_temperature;BME280_humidity;BME280_pressure;Samples;Min_cycle;Max_cycle;Signal;HPM_P1;HPM_P2
2020/12/02 00:00:36;;;;;;;39.75;15.88;;;;;;;-0.20;94.07;102138.54;1633554;87;22476;-87
2020/12/02 00:03:21;;;;;;;45.45;16.67;;;;;;;-0.25;93.95;102138.97;1633735;87;21155;-86
2020/12/02 00:05:51;;;;;;;39.30;15.23;;;;;;;-0.11;94.22;102140.28;1633564;87;21202;-87
2020/12/02 00:08:31;;;;;;;34.00;14.93;;;;;;;-0.10;93.80;102143.75;1633520;87;21150;-87
2020/12/02 00:11:01;;;;;;;43.75;15.70;;;;;;;0.07;92.62;102136.30;1705781;83;21213;-86
2020/12/02 00:13:34;;;;;;;40.92;15.85;;;;;;;-0.24;93.84;102146.42;1684847;84;21004;-86
2020/12/02 00:16:03;;;;;;;46.02;16.87;;;;;;;-0.10;93.89;102144.58;1685272;85;21390;-87
2020/12/02 00:18:29;;;;;;;42.65;16.12;;;;;;;0.04;92.77;102152.50;1685491;84;21139;-86
2020/12/02 00:20:55;;;;;;;36.13;13.10;;;;;;;-0.01;92.75;102154.77;1685473;84;21687;-87
2020/12/02 00:23:21;;;;;;;34.67;13.85;;;;;;;-0.14;93.02;102152.50;1685167;84;21244;-86
2020/12/02 00:25:47;;;;;;;40.55;15.43;;;;;;;-0.10;93.13;102156.51;1684975;85;20992;-86
2020/12/02 00:28:14;;;;;;;33.98;14.60;;;;;;;-0.07;93.17;102146.93;1684477;84;20968;-87
2020/12/02 00:30:41;;;;;;;28.87;10.60;;;;;;;-0.03;93.04;102151.42;1685009;84;21226;-87
2020/12/02 00:33:25;;;;;;;28.60;9.60;;;;;;;0.00;93.03;102151.16;1684974;84;21135;-87
2020/12/02 00:35:52;;;;;;;23.57;9.73;;;;;;;0.09;92.28;102145.41;1685291;85;21180;-87
2020/12/02 00:38:20;;;;;;;19.95;9.48;;;;;;;0.04;92.42;102151.18;1685210;85;21604;-86
2020/12/02 00:40:47;;;;;;;25.60;10.00;;;;;;;0.06;92.30;102140.41;1685151;84;21171;-87
2020/12/02 00:43:17;;;;;;;31.23;13.18;;;;;;;-0.06;92.94;102148.61;1685463;84;21344;-87
2020/12/02 00:45:44;;;;;;;37.05;15.23;;;;;;;-0.08;93.35;102143.95;1684532;84;21170;-87
2020/12/02 00:48:15;;;;;;;32.30;13.45;;;;;;;-0.24;94.43;102144.63;1684737;84;21263;-87
2020/12/02 00:50:41;;;;;;;26.30;12.13;;;;;;;-0.13;94.44;102149.36;1643920;87;21235;-86
2020/12/02 00:53:12;;;;;;;34.20;12.53;;;;;;;-0.11;93.80;102144.25;1644212;87;21141;-87
2020/12/02 00:55:39;;;;;;;32.17;12.82;;;;;;;-0.09;94.13;102144.95;1657836;85;21223;-87
2020/12/02 00:58:09;;;;;;;31.45;12.25;;;;;;;-0.13;93.70;102149.36;1670330;84;21634;-87
2020/12/02 01:00:39;;;;;;;31.45;12.70;;;;;;;-0.18;93.94;102136.55;1667101;85;22048;-87
2020/12/02 01:03:26;;;;;;;28.70;11.45;;;;;;;-0.23;94.62;102137.52;1670302;84;21648;-87
2020/12/02 01:05:54;;;;;;;25.65;12.43;;;;;;;-0.24;94.36;102137.16;1582795;89;21266;-86
2020/12/02 01:08:35;;;;;;;32.17;13.98;;;;;;;-0.12;94.45;102133.33;1583991;90;21638;-87
2020/12/02 01:11:23;;;;;;;26.95;11.28;;;;;;;-0.05;94.24;102130.39;1625528;86;21225;-86
2020/12/02 01:14:03;;;;;;;23.83;9.88;;;;;;;-0.18;94.46;102128.60;1609220;88;21266;-86
2020/12/02 01:16:36;;;;;;;21.27;8.80;;;;;;;-0.18;94.19;102129.09;1609272;88;21222;-86
2020/12/02 01:19:06;;;;;;;26.60;10.38;;;;;;;-0.27;94.75;102127.69;1564093;91;21173;-86
2020/12/02 01:21:46;;;;;;;22.60;8.78;;;;;;;-0.29;95.23;102127.52;1564166;91;21208;-87
2020/12/02 01:24:17;;;;;;;23.15;8.58;;;;;;;-0.38;95.69;102129.25;1564287;91;21176;-87
2020/12/02 01:26:51;;;;;;;28.57;9.58;;;;;;;-0.48;96.13;102127.14;1564287;91;21364;-88
2020/12/02 01:29:21;;;;;;;33.40;11.20;;;;;;;-0.39;96.64;102130.22;1564106;91;21113;-87
2020/12/02 01:31:52;;;;;;;26.73;11.75;;;;;;;-0.40;95.92;102127.73;1564152;91;21271;-88
2020/12/02 01:34:19;;;;;;;25.32;9.23;;;;;;;-0.40;95.99;102120.62;1564304;91;21673;-88
2020/12/02 01:37:07;;;;;;;28.00;10.80;;;;;;;-0.64;96.86;102125.66;1564310;91;21705;-87
2020/12/02 01:39:38;;;;;;;26.07;10.98;;;;;;;-0.53;97.57;102125.42;1514109;94;21214;-87
2020/12/02 01:42:05;;;;;;;28.17;11.63;;;;;;;-0.33;97.31;102127.47;1513939;94;21131;-86
2020/12/02 01:44:31;;;;;;;32.00;14.15;;;;;;;-0.50;96.83;102127.31;1514796;93;21217;-86
2020/12/02 01:47:08;;;;;;;38.95;16.90;;;;;;;-0.41;97.22;102133.53;1520848;93;20964;-87
2020/12/02 01:49:45;;;;;;;31.68;12.63;;;;;;;-0.44;97.70;102129.00;1538465;93;21254;-86
2020/12/02 01:52:54;;;;;;;27.27;12.35;;;;;;;-0.41;97.43;102127.38;1535947;93;21715;-86
2020/12/02 01:55:25;;;;;;;29.75;12.18;;;;;;;-0.44;97.02;102126.34;1561634;89;21269;-86
2020/12/02 01:57:56;;;;;;;25.82;10.80;;;;;;;-0.55;97.69;102120.80;1566292;91;21178;-86
2020/12/02 02:00:27;;;;;;;30.82;12.33;;;;;;;-0.57;97.81;102125.39;1566361;90;21204;-86
2020/12/02 02:03:13;;;;;;;27.17;11.48;;;;;;;-0.39;97.64;102118.80;1561122;90;21610;-87
2020/12/02 02:06:00;;;;;;;23.25;10.00;;;;;;;-0.59;98.01;102124.23;1566434;90;21526;-85
2020/12/02 02:08:30;;;;;;;28.30;11.93;;;;;;;-0.67;98.19;102126.78;1565774;90;21240;-85
2020/12/02 02:10:59;;;;;;;27.05;10.78;;;;;;;-0.63;98.03;102121.52;1566314;90;21663;-84
2020/12/02 02:13:59;;;;;;;29.77;11.30;;;;;;;-0.86;97.96;102118.93;1546484;91;21160;-85
2020/12/02 02:16:34;;;;;;;26.15;10.13;;;;;;;-0.86;97.86;102116.28;1585670;89;21205;-86
2020/12/02 02:19:00;;;;;;;24.72;10.58;;;;;;;-0.98;98.09;102115.15;1670450;85;21170;-86
2020/12/02 02:21:31;;;;;;;26.48;9.68;;;;;;;-0.95;98.05;102114.02;1670193;85;21595;-84
2020/12/02 02:23:57;;;;;;;22.35;9.33;;;;;;;-1.04;97.99;102117.05;1667169;85;21241;-85
2020/12/02 02:26:37;;;;;;;25.15;11.53;;;;;;;-1.03;98.62;102105.52;1670397;85;21615;-85
2020/12/02 02:29:23;;;;;;;26.05;12.60;;;;;;;-1.10;98.99;102119.45;1670316;85;21607;-85
2020/12/02 02:32:00;;;;;;;30.30;13.10;;;;;;;-1.06;98.28;102122.14;1670437;85;21260;-85
2020/12/02 02:34:28;;;;;;;29.07;11.57;;;;;;;-1.10;98.76;102120.28;1670549;85;21202;-86
2020/12/02 02:36:56;;;;;;;22.80;10.75;;;;;;;-1.14;99.12;102112.31;1670286;85;21155;-86
2020/12/02 02:39:22;;;;;;;21.35;10.00;;;;;;;-1.18;99.74;102109.13;1647733;85;21710;-85
2020/12/02 02:41:58;;;;;;;21.82;9.80;;;;;;;-1.10;99.36;102117.64;1647811;85;21217;-86
2020/12/02 02:44:24;;;;;;;23.55;9.85;;;;;;;-1.13;99.55;102130.33;1668602;85;21176;-86
2020/12/02 02:46:51;;;;;;;22.55;10.72;;;;;;;-1.19;98.77;102123.80;1670324;85;21254;-86
2020/12/02 02:49:18;;;;;;;24.02;9.80;;;;;;;-1.24;98.89;102127.36;1670289;85;21169;-86
2020/12/02 02:51:44;;;;;;;24.12;10.65;;;;;;;-1.24;98.77;102128.68;1670480;85;21098;-86
2020/12/02 02:54:10;;;;;;;21.12;10.08;;;;;;;-1.16;98.85;102126.16;1670603;85;21065;-86
2020/12/02 02:56:36;;;;;;;23.32;9.48;;;;;;;-1.04;98.51;102124.16;1666706;85;21227;-85
2020/12/02 02:59:02;;;;;;;23.30;10.05;;;;;;;-1.24;98.63;102126.03;1665026;86;21690;-86
2020/12/02 03:01:27;;;;;;;21.68;9.45;;;;;;;-1.21;99.02;102138.97;1680354;84;20933;-86
2020/12/02 03:03:53;;;;;;;26.23;10.13;;;;;;;-1.13;99.00;102139.59;1689722;84;20961;-85
2020/12/02 03:06:19;;;;;;;25.00;10.38;;;;;;;-1.27;98.76;102139.05;1689624;84;20969;-86
2020/12/02 03:08:46;;;;;;;25.25;10.55;;;;;;;-1.27;99.17;102135.58;1689682;84;21600;-86
2020/12/02 03:11:14;;;;;;;25.48;10.03;;;;;;;-1.23;99.27;102140.95;1689628;84;21537;-87
2020/12/02 03:13:51;;;;;;;24.50;10.38;;;;;;;-1.21;99.28;102129.72;1695196;84;21473;-87
2020/12/02 03:16:44;;;;;;;26.68;10.25;;;;;;;-1.17;99.18;102140.38;1697207;84;21077;-86
2020/12/02 03:19:21;;;;;;;26.37;10.68;;;;;;;-1.24;98.53;102142.73;1682251;85;21088;-86
2020/12/02 03:21:49;;;;;;;27.30;11.05;;;;;;;-1.17;98.94;102140.38;1694989;84;21410;-86
2020/12/02 03:24:16;;;;;;;25.48;10.70;;;;;;;-1.09;98.64;102142.28;1681930;85;21081;-86
2020/12/02 03:26:42;;;;;;;25.60;11.43;;;;;;;-1.15;98.29;102136.61;1697212;84;21601;-86
2020/12/02 03:29:09;;;;;;;28.12;11.85;;;;;;;-1.00;98.37;102143.58;1681996;85;21123;-86
2020/12/02 03:31:36;;;;;;;27.20;10.95;;;;;;;-0.94;97.92;102140.84;1697190;83;21173;-86
2020/12/02 03:34:04;;;;;;;28.92;11.12;;;;;;;-1.07;98.42;102146.45;1681974;85;21224;-86
2020/12/02 03:40:12;;;;;;;28.52;12.13;;;;;;;-1.02;98.57;102154.79;1682039;85;21097;-85
2020/12/02 03:42:38;;;;;;;26.73;11.35;;;;;;;-1.05;98.03;102152.93;1697144;83;21582;-85
2020/12/02 03:45:08;;;;;;;27.32;12.13;;;;;;;-1.05;98.23;102155.08;1681833;85;21156;-85
2020/12/02 03:47:35;;;;;;;32.98;13.05;;;;;;;-0.95;97.91;102161.66;1697189;83;21282;-86
2020/12/02 03:50:07;;;;;;;23.98;11.57;;;;;;;-0.72;96.95;102154.17;1681958;85;21223;-85
2020/12/02 03:52:33;;;;;;;32.23;12.58;;;;;;;-0.77;96.59;102163.86;1697125;83;21171;-85
2020/12/02 03:54:58;;;;;;;41.33;15.53;;;;;;;-0.88;96.13;102165.86;1682376;85;20926;-85
2020/12/02 03:57:24;;;;;;;33.78;12.93;;;;;;;-0.76;95.56;102165.55;1709244;83;20990;-85
2020/12/02 03:59:50;;;;;;;38.60;14.35;;;;;;;-0.92;96.22;102167.97;1709982;83;21200;-85
2020/12/02 04:02:16;;;;;;;30.15;12.98;;;;;;;-0.81;95.97;102164.32;1709989;83;21070;-85
2020/12/02 04:04:42;;;;;;;37.25;15.13;;;;;;;-0.83;96.27;102155.69;1710046;83;20987;-85
2020/12/02 04:07:08;;;;;;;31.90;13.80;;;;;;;-0.70;95.67;102160.99;1677389;83;20974;-85
2020/12/02 04:09:34;;;;;;;28.07;12.75;;;;;;;-0.89;95.89;102162.39;1709876;83;21036;-85
2020/12/02 04:12:00;;;;;;;26.95;11.35;;;;;;;-0.96;96.68;102162.14;1709948;83;21932;-85
2020/12/02 04:14:26;;;;;;;25.10;9.98;;;;;;;-1.04;96.71;102163.84;1710002;83;21030;-85
2020/12/02 04:16:51;;;;;;;30.17;10.78;;;;;;;-0.85;95.98;102172.19;1709966;83;20974;-85
2020/12/02 04:19:17;;;;;;;29.85;12.07;;;;;;;-0.90;96.22;102161.23;1710027;83;21102;-85
2020/12/02 04:21:43;;;;;;;34.33;11.30;;;;;;;-0.94;95.98;102162.84;1710077;83;21133;-84
2020/12/02 04:24:09;;;;;;;31.17;11.48;;;;;;;-0.97;95.41;102163.59;1710135;83;21160;-85
2020/12/02 04:26:35;;;;;;;30.45;11.70;;;;;;;-0.97;95.84;102163.59;1709845;83;21053;-85
2020/12/02 04:29:02;;;;;;;30.68;12.35;;;;;;;-0.94;96.02;102164.17;1710076;83;21662;-86
2020/12/02 04:31:30;;;;;;;29.60;11.97;;;;;;;-1.01;96.30;102160.41;1709986;83;21177;-86
2020/12/02 04:33:55;;;;;;;28.80;11.88;;;;;;;-0.97;95.92;102160.95;1710094;83;21157;-85
2020/12/02 04:36:21;;;;;;;34.15;13.40;;;;;;;-0.92;95.86;102162.69;1710075;83;21247;-86
2020/12/02 04:38:47;;;;;;;30.25;12.95;;;;;;;-0.77;95.54;102168.33;1709926;83;21018;-85
2020/12/02 04:41:15;;;;;;;33.20;14.05;;;;;;;-0.86;95.45;102164.74;1709847;83;21026;-85
2020/12/02 04:43:48;;;;;;;36.15;15.18;;;;;;;-0.93;95.76;102161.85;1710044;83;21230;-85
2020/12/02 04:46:22;;;;;;;35.27;13.07;;;;;;;-0.75;95.30;102165.06;1710267;83;21117;-85
2020/12/02 04:48:55;;;;;;;45.92;17.55;;;;;;;-0.98;95.59;102170.70;1710018;83;21688;-85
2020/12/02 04:51:28;;;;;;;47.50;15.90;;;;;;;-0.78;95.06;102173.29;1710038;83;21152;-85
2020/12/02 04:53:57;;;;;;;46.33;16.77;;;;;;;-0.85;94.76;102177.02;1710209;83;21201;-85
2020/12/02 04:56:26;;;;;;;46.95;17.50;;;;;;;-0.60;93.75;102175.50;1706227;82;21146;-85
2020/12/02 04:58:55;;;;;;;44.10;15.72;;;;;;;-0.61;93.57;102182.28;1699460;83;21175;-86
2020/12/02 05:01:28;;;;;;;46.65;17.92;;;;;;;-0.84;93.90;102185.29;1699883;84;21195;-86
2020/12/02 05:04:19;;;;;;;54.97;20.03;;;;;;;-0.83;94.96;102186.12;1699649;83;21155;-86
2020/12/02 05:06:49;;;;;;;49.35;18.98;;;;;;;-0.95;94.99;102190.75;1699899;82;21645;-85
2020/12/02 05:09:23;;;;;;;46.95;16.67;;;;;;;-1.12;96.36;102195.47;1699334;83;21373;-86
2020/12/02 05:11:58;;;;;;;52.58;19.37;;;;;;;-1.17;96.45;102205.17;1666763;84;21538;-85
2020/12/02 05:14:41;;;;;;;55.40;19.77;;;;;;;-1.20;97.30;102205.45;1714622;83;21158;-85
2020/12/02 05:17:27;;;;;;;53.92;19.75;;;;;;;-1.18;97.19;102204.80;1713841;83;21140;-85
2020/12/02 05:20:14;;;;;;;56.25;19.80;;;;;;;-1.26;97.01;102208.18;1714495;82;21799;-86
2020/12/02 05:26:22;;;;;;;58.98;19.87;;;;;;;-1.04;96.63;102222.87;1714683;83;21153;-86
2020/12/02 05:28:50;;;;;;;56.23;20.17;;;;;;;-1.17;96.62;102214.42;1714665;83;21193;-85
2020/12/02 05:31:29;;;;;;;54.20;17.52;;;;;;;-1.23;97.59;102213.19;1707785;83;21141;-86
2020/12/02 05:34:09;;;;;;;57.73;19.85;;;;;;;-1.32;97.35;102218.00;1714673;83;21193;-86
2020/12/02 05:36:40;;;;;;;55.95;18.82;;;;;;;-1.26;97.54;102222.72;1681223;83;21152;-86
2020/12/02 05:39:31;;;;;;;51.98;20.35;;;;;;;-1.32;97.72;102223.76;1714645;82;21167;-86
2020/12/02 05:41:57;;;;;;;64.95;22.02;;;;;;;-1.26;97.61;102224.05;1714573;83;21187;-85
2020/12/02 05:44:37;;;;;;;62.25;20.37;;;;;;;-0.96;96.59;102224.81;1715089;82;21164;-85
2020/12/02 05:47:18;;;;;;;58.75;20.65;;;;;;;-1.29;97.43;102234.91;1683987;83;21174;-86
2020/12/02 05:49:51;;;;;;;59.77;20.23;;;;;;;-1.22;97.20;102229.87;1714513;83;21503;-85
2020/12/02 05:52:37;;;;;;;54.58;19.70;;;;;;;-1.20;96.88;102234.55;1714523;82;21141;-86
2020/12/02 06:02:25;;;;;;;62.43;20.85;;;;;;;-1.31;97.36;102242.14;1714423;83;21169;-85
2020/12/02 06:04:54;;;;;;;55.55;18.02;;;;;;;-1.28;97.13;102247.64;1714663;83;21184;-85
2020/12/02 06:07:22;;;;;;;65.05;20.62;;;;;;;-1.45;96.99;102242.56;1714515;83;21149;-85
2020/12/02 06:09:52;;;;;;;72.65;21.07;;;;;;;-1.44;97.25;102253.02;1714472;82;21252;-86
2020/12/02 06:12:24;;;;;;;61.80;20.20;;;;;;;-1.31;96.62;102254.53;1714534;82;21090;-86
2020/12/02 06:14:51;;;;;;;58.10;18.80;;;;;;;-1.38;96.65;102255.09;1684233;83;21180;-86
2020/12/02 06:17:30;;;;;;;66.22;21.48;;;;;;;-1.30;96.26;102247.77;1714503;82;21595;-86
2020/12/02 06:19:58;;;;;;;61.02;19.32;;;;;;;-1.29;96.52;102257.39;1714594;82;21133;-86
2020/12/02 06:26:04;;;;;;;60.28;20.90;;;;;;;-1.42;96.86;102257.66;1714479;83;21102;-85
2020/12/02 06:28:36;;;;;;;68.00;21.07;;;;;;;-1.48;97.00;102265.31;1714511;83;21598;-85
2020/12/02 06:31:19;;;;;;;62.08;18.92;;;;;;;-1.43;96.81;102262.60;1714599;82;21093;-87
2020/12/02 06:33:48;;;;;;;61.83;19.95;;;;;;;-1.49;96.58;102272.91;1714759;83;21169;-86
2020/12/02 06:36:28;;;;;;;71.37;22.37;;;;;;;-1.54;96.69;102264.06;1714476;83;21570;-87
2020/12/02 06:39:11;;;;;;;67.53;20.60;;;;;;;-1.39;96.82;102277.20;1714706;82;21106;-86
2020/12/02 06:41:43;;;;;;;53.10;16.20;;;;;;;-1.34;96.96;102278.61;1714542;82;21177;-86
2020/12/02 06:44:17;;;;;;;73.87;22.32;;;;;;;-1.45;95.85;102277.77;1683946;83;21176;-86
2020/12/02 06:47:10;;;;;;;78.28;19.82;;;;;;;-1.55;96.61;102276.94;1711689;83;21090;-86
2020/12/02 06:49:38;;;;;;;73.03;21.63;;;;;;;-1.45;96.10;102287.50;1714797;82;21428;-87
2020/12/02 06:52:12;;;;;;;80.72;22.45;;;;;;;-1.44;95.24;102283.87;1714507;82;21201;-86
2020/12/02 06:54:40;;;;;;;81.17;22.45;;;;;;;-1.43;95.19;102283.76;1672511;84;21198;-86
2020/12/02 06:57:20;;;;;;;68.72;21.77;;;;;;;-1.30;95.57;102290.56;1671449;84;21341;-86
2020/12/02 06:59:59;;;;;;;63.60;18.98;;;;;;;-1.26;94.79;102294.63;1660502;85;21267;-86
2020/12/02 07:02:36;;;;;;;63.23;19.82;;;;;;;-1.56;94.88;102285.82;1660453;85;21226;-86
2020/12/02 07:05:07;;;;;;;63.85;18.52;;;;;;;-1.43;95.13;102282.44;1600049;88;21186;-85
2020/12/02 07:07:33;;;;;;;59.85;16.67;;;;;;;-1.55;95.51;102286.19;1581212;89;21195;-86
2020/12/02 07:09:59;;;;;;;62.00;17.23;;;;;;;-1.52;95.06;102294.34;1602329;88;21647;-86
2020/12/02 07:12:29;;;;;;;55.55;18.30;;;;;;;-1.54;94.87;102298.42;1602208;88;21058;-87
2020/12/02 07:15:01;;;;;;;66.25;17.73;;;;;;;-1.13;93.70;102293.83;1602394;88;21242;-85
2020/12/02 07:17:29;;;;;;;55.75;17.42;;;;;;;-1.37;93.63;102293.77;1599795;89;21202;-86
2020/12/02 07:20:00;;;;;;;53.17;15.65;;;;;;;-1.37;93.26;102299.06;1602205;88;21206;-86
2020/12/02 07:22:33;;;;;;;53.63;16.42;;;;;;;-1.35;93.47;102303.36;1596303;88;21076;-84
2020/12/02 07:25:04;;;;;;;57.23;18.20;;;;;;;-1.43;93.86;102307.55;1600229;88;21218;-85
2020/12/02 07:27:30;;;;;;;57.38;17.92;;;;;;;-1.17;93.44;102305.19;1569769;90;21273;-85
2020/12/02 07:30:01;;;;;;;57.55;18.40;;;;;;;-1.29;93.74;102308.95;1569922;90;21168;-86
2020/12/02 07:32:27;;;;;;;60.70;19.75;;;;;;;-1.16;93.48;102309.98;1447609;99;21443;-85
2020/12/02 07:35:03;;;;;;;70.32;18.05;;;;;;;-1.31;93.13;102312.70;1446957;99;21320;-85
2020/12/02 07:37:30;;;;;;;69.32;18.82;;;;;;;-1.14;92.38;102305.40;1346117;105;21732;-85
2020/12/02 07:40:00;;;;;;;79.82;20.02;;;;;;;-1.32;92.77;102306.59;1346332;106;21323;-85
2020/12/02 07:42:31;;;;;;;69.47;18.32;;;;;;;-1.28;93.25;102305.81;1346049;105;21268;-86
2020/12/02 07:45:21;;;;;;;57.73;17.60;;;;;;;-1.08;92.50;102313.27;1355570;104;21776;-85
2020/12/02 07:48:07;;;;;;;57.13;16.73;;;;;;;-1.06;92.36;102312.15;1335420;106;21330;-85
2020/12/02 07:50:53;;;;;;;55.88;17.32;;;;;;;-1.39;93.06;102311.58;1298988;109;21362;-86
2020/12/02 07:53:44;;;;;;;59.85;17.77;;;;;;;-1.37;93.16;102306.16;1274557;111;21396;-85
2020/12/02 07:56:25;;;;;;;56.25;17.80;;;;;;;-1.25;92.93;102307.69;1276950;111;21362;-87
2020/12/02 08:02:37;;;;;;;57.75;19.17;;;;;;;-1.03;91.61;102304.39;1291284;109;21360;-84
2020/12/02 08:05:05;;;;;;;75.03;20.15;;;;;;;-1.16;93.47;102295.44;1298046;109;21825;-84
2020/12/02 08:11:16;;;;;;;64.53;17.27;;;;;;;-1.14;92.95;102292.17;1296051;109;21469;-86
2020/12/02 08:13:54;;;;;;;63.98;18.87;;;;;;;-1.39;94.42;102289.10;1295894;109;21359;-86
2020/12/02 08:16:31;;;;;;;72.40;19.62;;;;;;;-1.21;94.13;102283.11;1340265;105;21285;-87
2020/12/02 08:18:58;;;;;;;64.85;19.35;;;;;;;-1.09;93.44;102280.66;1340774;106;21298;-85
2020/12/02 08:21:27;;;;;;;64.80;18.32;;;;;;;-0.95;93.43;102276.75;1340456;107;21299;-85
2020/12/02 08:24:21;;;;;;;71.62;18.52;;;;;;;-1.11;93.42;102281.31;1340643;106;21258;-86
2020/12/02 08:26:49;;;;;;;;;;;;;;;-0.97;92.65;102283.98;1343714;105;21363;-85
2020/12/02 08:29:22;;;;;;;67.75;20.43;;;;;;;-1.13;93.52;102287.22;1380740;100;20347;-85
2020/12/02 08:32:09;;;;;;;64.80;19.65;;;;;;;-1.05;93.21;102286.03;1457061;97;21296;-85
2020/12/02 08:34:37;;;;;;;63.08;18.70;;;;;;;-0.98;92.65;102285.80;1485285;95;21212;-84
2020/12/02 08:37:18;;;;;;;64.90;20.12;;;;;;;-0.98;93.00;102288.45;1497272;95;21299;-85
2020/12/02 08:39:48;;;;;;;66.60;18.62;;;;;;;-0.87;92.33;102301.19;1497365;95;21256;-84
2020/12/02 08:42:35;;;;;;;65.47;19.15;;;;;;;-0.86;91.87;102294.91;1510869;94;21282;-85
2020/12/02 08:45:23;;;;;;;72.50;21.20;;;;;;;-0.77;91.79;102294.05;1568670;88;21616;-84
2020/12/02 08:47:57;;;;;;;67.80;19.50;;;;;;;-0.87;92.27;102285.31;1669524;85;21338;-84
2020/12/02 08:50:30;;;;;;;80.45;21.77;;;;;;;-1.01;92.99;102294.02;1671875;84;21676;-85
2020/12/02 08:52:59;;;;;;;80.40;20.88;;;;;;;-0.99;92.68;102289.44;1648296;85;21237;-84
2020/12/02 08:55:26;;;;;;;79.27;20.35;;;;;;;-0.89;92.87;102281.47;1648393;85;21221;-85
2020/12/02 08:57:52;;;;;;;77.12;20.88;;;;;;;-0.93;92.30;102285.39;1646918;85;21232;-84
2020/12/02 09:00:21;;;;;;;69.72;19.02;;;;;;;-0.81;93.14;102288.21;1640909;86;21163;-85
2020/12/02 09:02:49;;;;;;;77.12;20.43;;;;;;;-0.80;91.86;102286.39;1641120;86;21203;-85
2020/12/02 09:05:15;;;;;;;75.80;20.92;;;;;;;-0.77;92.47;102279.00;1641129;86;21155;-85
2020/12/02 09:07:41;;;;;;;71.85;19.15;;;;;;;-0.78;91.87;102279.16;1641084;86;21121;-85
2020/12/02 09:13:48;;;;;;;63.78;18.90;;;;;;;-0.86;92.58;102269.77;1641174;86;21207;-85
2020/12/02 09:16:31;;;;;;;66.80;19.57;;;;;;;-1.04;93.28;102270.98;1641056;86;21214;-86
2020/12/02 14:11:58;;;;;;;94.35;30.05;;;;;;;-2.05;100.00;102261.16;1811115;77;26274;-86
2020/12/02 14:14:30;;;;;;;90.38;24.75;;;;;;;-1.93;100.00;102260.55;1710974;82;21241;-85
2020/12/02 14:16:56;;;;;;;74.05;22.07;;;;;;;-1.79;100.00;102260.63;1606342;88;22082;-85
2020/12/02 14:19:23;;;;;;;76.67;20.68;;;;;;;-1.64;100.00;102261.91;1579731;89;21142;-85
2020/12/02 14:22:19;;;;;;;71.85;19.87;;;;;;;-1.41;100.00;102254.55;1600471;88;21184;-87
2020/12/02 14:24:49;;;;;;;69.25;19.25;;;;;;;-1.38;99.32;102263.03;1518173;92;21671;-87
2020/12/02 14:27:25;;;;;;;69.60;18.67;;;;;;;-0.65;97.29;102262.45;1513867;94;21301;-86
2020/12/02 14:29:55;;;;;;;69.80;18.37;;;;;;;-0.53;94.58;102261.78;1499973;93;21788;-87
2020/12/02 14:32:23;;;;;;;63.98;17.45;;;;;;;-0.61;93.33;102257.23;1500637;93;21285;-88
2020/12/02 14:34:51;;;;;;;64.92;18.92;;;;;;;-0.69;92.90;102255.79;1512936;94;21292;-87
2020/12/02 14:37:17;;;;;;;72.45;18.48;;;;;;;-0.27;92.69;102261.45;1504524;94;21602;-87
2020/12/02 14:39:44;;;;;;;64.37;17.82;;;;;;;-0.60;92.18;102266.83;1487036;93;21254;-87
2020/12/02 14:42:13;;;;;;;65.90;18.23;;;;;;;-0.47;91.08;102261.23;1491963;95;21811;-87
2020/12/02 14:44:42;;;;;;;61.35;17.05;;;;;;;-0.81;92.88;102269.69;1481384;94;21329;-87
2020/12/02 14:47:13;;;;;;;59.88;17.60;;;;;;;-0.01;92.32;102268.72;1488550;94;21265;-86
2020/12/02 14:49:39;;;;;;;64.95;15.93;;;;;;;-1.33;94.85;102271.84;1490191;94;21242;-87
2020/12/02 14:52:05;;;;;;;68.95;19.40;;;;;;;-1.57;95.83;102281.52;1493128;94;21793;-86
2020/12/02 14:54:31;;;;;;;68.00;17.45;;;;;;;-0.94;95.69;102271.33;1507008;92;21249;-83
2020/12/02 14:57:38;;;;;;;75.92;19.05;;;;;;;-1.35;95.34;102275.14;1530662;92;21188;-86
2020/12/02 15:00:15;;;;;;;64.60;17.12;;;;;;;-1.36;96.17;102268.16;1535188;92;21263;-85
2020/12/02 15:02:43;;;;;;;64.65;17.73;;;;;;;-1.34;95.79;102265.39;1537167;92;21203;-86
2020/12/02 15:05:20;;;;;;;74.25;19.05;;;;;;;-1.19;95.58;102268.78;1535926;92;21257;-86
2020/12/02 15:11:45;;;;;;;69.92;19.50;;;;;;;-0.94;95.02;102275.30;1553645;90;21696;-85
2020/12/02 15:14:12;;;;;;;;;;;;;;;-0.94;95.30;102291.17;1552739;90;21673;-86
2020/12/02 15:16:43;;;;;;;72.70;21.45;;;;;;;-1.00;94.93;102290.42;1589271;88;21134;-87
2020/12/02 15:19:11;;;;;;;83.55;22.02;;;;;;;-0.75;94.13;102294.25;1555954;90;21260;-87
2020/12/02 15:21:41;;;;;;;80.53;21.48;;;;;;;-0.80;93.19;102295.66;1553383;91;21873;-87
2020/12/02 15:24:11;;;;;;;72.58;18.62;;;;;;;-1.24;94.81;102293.97;1593821;86;21593;-88
2020/12/02 15:26:37;;;;;;;75.67;19.05;;;;;;;-1.28;95.65;102292.10;1650468;84;21667;-87
2020/12/02 15:29:03;;;;;;;71.53;17.65;;;;;;;-1.51;96.18;102293.35;1629713;86;21038;-88
2020/12/02 15:31:29;;;;;;;68.35;19.57;;;;;;;-1.37;95.34;102300.38;1621962;87;21006;-87
2020/12/02 15:33:54;;;;;;;78.20;21.33;;;;;;;-1.12;95.69;102287.55;1634734;86;22018;-87
2020/12/02 15:36:28;;;;;;;61.30;18.20;;;;;;;-1.07;95.14;102286.66;1656718;86;20997;-88
2020/12/02 15:39:14;;;;;;;83.45;19.32;;;;;;;-1.20;93.95;102294.89;1625960;86;21152;-88
2020/12/02 15:45:39;;;;;;;70.08;19.45;;;;;;;-1.08;94.66;102299.55;1626730;86;21699;-87
2020/12/02 15:48:09;;;;;;;70.03;20.12;;;;;;;-0.92;93.46;102301.60;1596137;87;22148;-87
2020/12/02 15:51:01;;;;;;;72.53;19.17;;;;;;;-1.23;95.26;102315.50;1610761;87;21262;-87
2020/12/02 15:53:47;;;;;;;79.62;23.40;;;;;;;-1.27;94.21;102318.05;1611943;87;21196;-87
2020/12/02 15:56:41;;;;;;;71.92;21.33;;;;;;;-1.33;96.12;102325.22;1578084;90;21212;-87
2020/12/02 15:59:27;;;;;;;;;;;;;;;-1.45;95.74;102297.59;1588766;89;21194;-87
2020/12/02 16:01:56;;;;;;;72.55;22.93;;;;;;;-1.46;96.53;102301.71;1563889;89;21304;-87
2020/12/02 16:04:39;;;;;;;78.28;22.02;;;;;;;-1.33;95.96;102304.90;1601136;87;21254;-87
2020/12/02 16:07:35;;;;;;;79.00;23.20;;;;;;;-1.42;95.43;102313.67;1551700;91;21175;-86
2020/12/02 16:10:06;;;;;;;84.40;23.98;;;;;;;-1.35;95.54;102324.52;1552201;87;21309;-87
2020/12/02 16:12:32;;;;;;;74.92;23.10;;;;;;;-1.63;96.92;102330.97;1612480;87;21290;-86
2020/12/02 16:15:03;;;;;;;82.15;20.60;;;;;;;-1.46;96.92;102342.20;1603283;88;21289;-88
2020/12/02 16:17:29;;;;;;;71.10;21.77;;;;;;;-1.63;96.76;102327.01;1609374;88;21868;-88
2020/12/02 16:19:55;;;;;;;98.75;26.95;;;;;;;-1.55;97.09;102331.13;1587797;88;21222;-88
2020/12/02 16:22:33;;;;;;;96.70;25.80;;;;;;;-1.69;96.83;102331.03;1611039;88;21162;-87
2020/12/02 16:25:01;;;;;;;97.10;26.70;;;;;;;-1.51;96.77;102337.80;1607934;88;21199;-88
2020/12/02 16:27:30;;;;;;;112.45;33.58;;;;;;;-1.67;96.43;102334.87;1609665;88;21194;-87
2020/12/02 16:29:56;;;;;;;145.50;41.40;;;;;;;-1.51;96.71;102343.09;1611355;88;21566;-88
2020/12/02 16:32:23;;;;;;;106.00;31.45;;;;;;;-1.58;96.77;102341.98;1616348;87;21064;-86
2020/12/02 16:34:50;;;;;;;108.00;32.03;;;;;;;-1.64;97.24;102342.52;1613489;88;21169;-86
2020/12/02 16:37:36;;;;;;;87.27;26.25;;;;;;;-1.45;97.02;102341.22;1619693;87;21203;-86
2020/12/02 16:40:10;;;;;;;80.15;22.07;;;;;;;-1.30;96.04;102350.90;1488043;95;21207;-86
2020/12/02 16:43:20;;;;;;;83.95;23.67;;;;;;;-1.80;97.09;102361.52;1490066;95;21575;-87
2020/12/02 16:46:22;;;;;;;82.15;21.60;;;;;;;-1.39;97.54;102351.73;1470853;95;21227;-86
2020/12/02 16:49:28;;;;;;;77.22;22.13;;;;;;;-1.67;97.17;102343.62;1473278;97;21674;-86
2020/12/02 16:52:29;;;;;;;72.65;21.25;;;;;;;-1.68;97.05;102343.75;1474505;96;21216;-86
2020/12/02 16:55:12;;;;;;;87.40;22.20;;;;;;;-1.68;98.09;102334.01;1476006;97;21407;-87
2020/12/02 16:57:43;;;;;;;69.67;21.15;;;;;;;-1.64;98.76;102335.91;1479819;95;21347;-88
2020/12/02 17:00:33;;;;;;;77.22;21.75;;;;;;;-1.52;98.24;102334.82;1477562;96;21290;-88
2020/12/02 17:03:21;;;;;;;75.95;21.30;;;;;;;-1.65;98.28;102331.13;1484820;93;21417;-87
2020/12/02 17:05:49;;;;;;;72.97;18.37;;;;;;;-1.62;98.93;102319.41;1529456;92;21276;-87